sensor_id;sensor_type;location;lat;lon;timestamp;pressure;altitude;pressure_sealevel;temperature;humidity
26915;BME280;14480;52.608;13.416;2023-05-09T06:36:55;144583.81;;;2.44;49.71
26915;BME280;14480;52.608;13.416;2023-05-09T06:41:58;144497.81;;;2.09;50.17
26915;BME280;14480;52.608;13.416;2023-05-09T06:47:06;144643.66;;;2.69;50.11
26915;BME280;14480;52.608;13.416;2023-05-09T06:52:13;144578.78;;;2.42;50.03
26915;BME280;14480;52.608;13.416;2023-05-09T06:57:17;144497.81;;;2.09;50.12
26915;BME280;14480;52.608;13.416;2023-05-09T07:02:20;144414.31;;;1.75;50.64
26915;BME280;14480;52.608;13.416;2023-05-09T07:07:25;144394.34;;;1.67;50.36
26915;BME280;14480;52.608;13.416;2023-05-09T07:12:31;144176.41;;;0.78;52.53
26915;BME280;14480;52.608;13.416;2023-05-09T07:17:35;144263.56;;;1.13;51.55
26915;BME280;14480;52.608;13.416;2023-05-09T07:22:40;144335.81;;;1.43;51.90
26915;BME280;14480;52.608;13.416;2023-05-09T07:27:43;144243.66;;;1.05;52.14
26915;BME280;14480;52.608;13.416;2023-05-09T07:32:47;144268.53;;;1.15;50.77
26915;BME280;14480;52.608;13.416;2023-05-09T07:37:52;144267.28;;;1.15;50.32
26915;BME280;14480;52.608;13.416;2023-05-09T07:42:56;144129.13;;;0.58;51.02
26915;BME280;14480;52.608;13.416;2023-05-09T07:47:59;143966.09;;;-0.08;51.17
26915;BME280;14480;52.608;13.416;2023-05-09T07:53:08;143957.34;;;-0.12;51.94
26915;BME280;14480;52.608;13.416;2023-05-09T07:58:11;143895.16;;;-0.37;51.39
26915;BME280;14480;52.608;13.416;2023-05-09T08:03:15;143795.72;;;-0.78;52.46
26915;BME280;14480;52.608;13.416;2023-05-09T08:08:22;143780.78;;;-0.84;52.83
26915;BME280;14480;52.608;13.416;2023-05-09T08:13:26;143711.19;;;-1.12;52.32
26915;BME280;14480;52.608;13.416;2023-05-09T08:18:30;143681.34;;;-1.25;53.43
26915;BME280;14480;52.608;13.416;2023-05-09T08:23:36;143641.56;;;-1.41;52.88
26915;BME280;14480;52.608;13.416;2023-05-09T08:28:41;143672.63;;;-1.28;54.42
26915;BME280;14480;52.608;13.416;2023-05-09T08:33:45;143688.78;;;-1.22;53.67
26915;BME280;14480;52.608;13.416;2023-05-09T08:38:50;143703.72;;;-1.15;53.85
26915;BME280;14480;52.608;13.416;2023-05-09T08:43:54;143708.69;;;-1.13;52.81
26915;BME280;14480;52.608;13.416;2023-05-09T08:48:58;143757.13;;;-0.94;54.61
26915;BME280;14480;52.608;13.416;2023-05-09T08:54:16;143688.78;;;-1.22;53.75
26915;BME280;14480;52.608;13.416;2023-05-09T08:59:23;143743.47;;;-0.99;54.26
26915;BME280;14480;52.608;13.416;2023-05-09T09:04:28;143798.19;;;-0.77;54.12
26915;BME280;14480;52.608;13.416;2023-05-09T09:09:33;143712.41;;;-1.12;53.27
26915;BME280;14480;52.608;13.416;2023-05-09T09:14:38;143741.00;;;-1.00;55.46
26915;BME280;14480;52.608;13.416;2023-05-09T09:19:44;143758.38;;;-0.93;60.14
26915;BME280;14480;52.608;13.416;2023-05-09T09:24:53;143834.25;;;-0.62;58.49
26915;BME280;14480;52.608;13.416;2023-05-09T09:30:05;143851.66;;;-0.55;55.17
26915;BME280;14480;52.608;13.416;2023-05-09T09:40:48;143885.22;;;-0.41;52.88
26915;BME280;14480;52.608;13.416;2023-05-09T09:45:55;143896.41;;;-0.37;52.81
26915;BME280;14480;52.608;13.416;2023-05-09T09:51:02;143943.69;;;-0.17;52.75
26915;BME280;14480;52.608;13.416;2023-05-09T09:56:08;143939.97;;;-0.19;52.15
26915;BME280;14480;52.608;13.416;2023-05-09T10:01:12;144025.81;;;0.16;53.93
26915;BME280;14480;52.608;13.416;2023-05-09T10:06:17;144017.13;;;0.13;51.71
26915;BME280;14480;52.608;13.416;2023-05-09T10:11:22;144053.19;;;0.27;52.22
26915;BME280;14480;52.608;13.416;2023-05-09T10:16:26;144146.53;;;0.66;51.50
26915;BME280;14480;52.608;13.416;2023-05-09T10:21:51;144104.22;;;0.48;49.02
26915;BME280;14480;52.608;13.416;2023-05-09T10:27:01;144121.63;;;0.55;47.36
26915;BME280;14480;52.608;13.416;2023-05-09T10:32:09;144134.09;;;0.61;48.32
26915;BME280;14480;52.608;13.416;2023-05-09T10:37:14;144197.56;;;0.86;47.64
26915;BME280;14480;52.608;13.416;2023-05-09T10:42:20;144257.34;;;1.11;48.86
26915;BME280;14480;52.608;13.416;2023-05-09T10:47:26;144278.53;;;1.20;49.11
26915;BME280;14480;52.608;13.416;2023-05-09T10:52:31;144277.28;;;1.19;47.41
26915;BME280;14480;52.608;13.416;2023-05-09T10:57:37;144300.94;;;1.29;47.58
26915;BME280;14480;52.608;13.416;2023-05-09T11:02:41;144251.13;;;1.08;46.89
26915;BME280;14480;52.608;13.416;2023-05-09T11:07:45;144238.63;;;1.03;47.68
26915;BME280;14480;52.608;13.416;2023-05-09T11:12:53;144279.75;;;1.20;47.98
26915;BME280;14480;52.608;13.416;2023-05-09T11:18:05;144302.19;;;1.29;48.34
26915;BME280;14480;52.608;13.416;2023-05-09T11:23:09;144317.13;;;1.35;49.46
26915;BME280;14480;52.608;13.416;2023-05-09T11:28:26;144347.00;;;1.48;46.81
26915;BME280;14480;52.608;13.416;2023-05-09T11:33:30;144333.31;;;1.42;47.84
26915;BME280;14480;52.608;13.416;2023-05-09T11:38:39;144369.44;;;1.57;48.08
26915;BME280;14480;52.608;13.416;2023-05-09T11:43:45;144411.81;;;1.74;48.49
26915;BME280;14480;52.608;13.416;2023-05-09T11:48:48;144354.50;;;1.51;47.23
26915;BME280;14480;52.608;13.416;2023-05-09T11:53:52;144408.03;;;1.72;48.23
26915;BME280;14480;52.608;13.416;2023-05-09T11:58:57;144425.50;;;1.80;45.65
26915;BME280;14480;52.608;13.416;2023-05-09T12:04:01;144393.13;;;1.66;48.06
26915;BME280;14480;52.608;13.416;2023-05-09T12:09:07;144449.19;;;1.89;46.78
26915;BME280;14480;52.608;13.416;2023-05-09T12:14:12;144415.56;;;1.75;46.96
26915;BME280;14480;52.608;13.416;2023-05-09T12:19:28;144459.13;;;1.93;47.24
26915;BME280;14480;52.608;13.416;2023-05-09T12:24:33;144454.16;;;1.91;47.60
26915;BME280;14480;52.608;13.416;2023-05-09T12:29:39;144409.28;;;1.73;47.81
26915;BME280;14480;52.608;13.416;2023-05-09T12:34:47;144376.91;;;1.60;47.33
26915;BME280;14480;52.608;13.416;2023-05-09T12:40:01;144421.78;;;1.78;46.33
26915;BME280;14480;52.608;13.416;2023-05-09T12:45:10;144480.34;;;2.02;47.70
26915;BME280;14480;52.608;13.416;2023-05-09T12:50:14;144485.31;;;2.04;45.98
26915;BME280;14480;52.608;13.416;2023-05-09T12:55:18;144495.25;;;2.08;45.65
26915;BME280;14480;52.608;13.416;2023-05-09T13:00:24;144500.28;;;2.10;45.47
26915;BME280;14480;52.608;13.416;2023-05-09T13:05:28;144510.25;;;2.14;43.97
26915;BME280;14480;52.608;13.416;2023-05-09T13:10:36;144538.91;;;2.26;46.65
26915;BME280;14480;52.608;13.416;2023-05-09T13:15:43;144573.81;;;2.40;45.89
26915;BME280;14480;52.608;13.416;2023-05-09T13:20:51;144557.63;;;2.33;45.22
26915;BME280;14480;52.608;13.416;2023-05-09T13:25:57;144573.81;;;2.40;46.10
26915;BME280;14480;52.608;13.416;2023-05-09T13:31:02;144558.88;;;2.34;45.46
26915;BME280;14480;52.608;13.416;2023-05-09T13:36:09;144585.06;;;2.45;45.52
26915;BME280;14480;52.608;13.416;2023-05-09T13:41:13;144598.75;;;2.50;47.43
26915;BME280;14480;52.608;13.416;2023-05-09T13:46:23;144590.03;;;2.47;44.92
26915;BME280;14480;52.608;13.416;2023-05-09T13:51:27;144592.53;;;2.48;45.82
26915;BME280;14480;52.608;13.416;2023-05-09T13:56:31;144567.59;;;2.38;47.05
26915;BME280;14480;52.608;13.416;2023-05-09T14:01:35;144631.16;;;2.63;44.80
26915;BME280;14480;52.608;13.416;2023-05-09T14:06:39;144571.31;;;2.39;45.45
26915;BME280;14480;52.608;13.416;2023-05-09T14:11:49;144573.81;;;2.40;45.50
26915;BME280;14480;52.608;13.416;2023-05-09T14:16:55;144607.47;;;2.54;45.85
26915;BME280;14480;52.608;13.416;2023-05-09T14:22:02;144570.06;;;2.39;45.64
26915;BME280;14480;52.608;13.416;2023-05-09T14:27:06;144580.03;;;2.43;44.73
26915;BME280;14480;52.608;13.416;2023-05-09T14:32:16;144525.22;;;2.20;45.88
26915;BME280;14480;52.608;13.416;2023-05-09T14:37:51;144570.06;;;2.39;46.74
26915;BME280;14480;52.608;13.416;2023-05-09T14:43:11;144542.66;;;2.27;46.22
26915;BME280;14480;52.608;13.416;2023-05-09T14:48:17;144553.88;;;2.32;45.62
26915;BME280;14480;52.608;13.416;2023-05-09T14:53:21;144604.97;;;2.53;44.48
26915;BME280;14480;52.608;13.416;2023-05-09T14:58:58;144543.88;;;2.28;45.27
26915;BME280;14480;52.608;13.416;2023-05-09T15:15:59;144550.13;;;2.30;46.11
26915;BME280;14480;52.608;13.416;2023-05-09T15:21:06;144520.19;;;2.18;46.71
26915;BME280;14480;52.608;13.416;2023-05-09T15:37:57;144467.91;;;1.97;47.58
26915;BME280;14480;52.608;13.416;2023-05-09T15:43:02;144512.72;;;2.15;46.67
26915;BME280;14480;52.608;13.416;2023-05-09T15:48:14;144492.78;;;2.07;47.64
26915;BME280;14480;52.608;13.416;2023-05-09T15:53:20;144492.78;;;2.07;49.39
26915;BME280;14480;52.608;13.416;2023-05-09T15:58:24;144512.72;;;2.15;49.08
26915;BME280;14480;52.608;13.416;2023-05-09T16:03:28;144497.81;;;2.09;47.84
26915;BME280;14480;52.608;13.416;2023-05-09T16:08:33;144475.34;;;2.00;46.06
26915;BME280;14480;52.608;13.416;2023-05-09T16:13:37;144470.38;;;1.98;46.51
26915;BME280;14480;52.608;13.416;2023-05-09T16:18:40;144467.91;;;1.97;47.72
26915;BME280;14480;52.608;13.416;2023-05-09T16:23:48;144460.38;;;1.94;47.84
26915;BME280;14480;52.608;13.416;2023-05-09T16:28:51;144428.00;;;1.81;49.30
26915;BME280;14480;52.608;13.416;2023-05-09T16:33:55;144445.44;;;1.88;49.12
26915;BME280;14480;52.608;13.416;2023-05-09T16:39:00;144512.72;;;2.15;49.74
26915;BME280;14480;52.608;13.416;2023-05-09T16:44:04;144482.81;;;2.03;47.96
26915;BME280;14480;52.608;13.416;2023-05-09T16:49:07;144437.94;;;1.85;48.50
26915;BME280;14480;52.608;13.416;2023-05-09T16:54:13;144413.06;;;1.74;50.09
26915;BME280;14480;52.608;13.416;2023-05-09T16:59:17;144376.91;;;1.60;50.49
26915;BME280;14480;52.608;13.416;2023-05-09T17:04:22;144353.22;;;1.50;50.17
26915;BME280;14480;52.608;13.416;2023-05-09T17:09:31;144329.59;;;1.40;51.23
26915;BME280;14480;52.608;13.416;2023-05-09T17:14:34;144327.09;;;1.39;50.69
26915;BME280;14480;52.608;13.416;2023-05-09T17:19:38;144319.59;;;1.36;50.95
26915;BME280;14480;52.608;13.416;2023-05-09T17:24:43;144297.16;;;1.27;51.00
26915;BME280;14480;52.608;13.416;2023-05-09T17:29:46;144231.19;;;1.00;51.38
26915;BME280;14480;52.608;13.416;2023-05-09T17:34:51;144206.28;;;0.90;51.99
26915;BME280;14480;52.608;13.416;2023-05-09T17:39:57;144198.81;;;0.87;52.11
26915;BME280;14480;52.608;13.416;2023-05-09T17:45:10;144182.59;;;0.80;52.04
26915;BME280;14480;52.608;13.416;2023-05-09T17:50:15;144192.59;;;0.84;52.28
26915;BME280;14480;52.608;13.416;2023-05-09T17:55:25;144126.59;;;0.57;52.81
26915;BME280;14480;52.608;13.416;2023-05-09T18:00:43;144107.94;;;0.50;53.27
26915;BME280;14480;52.608;13.416;2023-05-09T18:05:53;144075.59;;;0.37;53.30
26915;BME280;14480;52.608;13.416;2023-05-09T18:11:07;144034.50;;;0.20;53.98
26915;BME280;14480;52.608;13.416;2023-05-09T18:16:22;144032.03;;;0.19;54.67
26915;BME280;14480;52.608;13.416;2023-05-09T18:21:26;144003.41;;;0.07;55.09
26915;BME280;14480;52.608;13.416;2023-05-09T18:26:33;143966.09;;;-0.08;55.63
26915;BME280;14480;52.608;13.416;2023-05-09T18:31:37;143937.47;;;-0.20;56.31
26915;BME280;14480;52.608;13.416;2023-05-09T18:43:12;143859.13;;;-0.52;57.55
26915;BME280;14480;52.608;13.416;2023-05-09T18:48:17;143818.09;;;-0.69;57.32
26915;BME280;14480;52.608;13.416;2023-05-09T18:53:21;143790.75;;;-0.80;58.45
26915;BME280;14480;52.608;13.416;2023-05-09T19:15:36;143640.31;;;-1.41;60.73
26915;BME280;14480;52.608;13.416;2023-05-09T19:21:02;143608.00;;;-1.55;61.08
26915;BME280;14480;52.608;13.416;2023-05-09T19:26:08;143576.94;;;-1.67;61.48
26915;BME280;14480;52.608;13.416;2023-05-09T19:36:34;143511.13;;;-1.94;62.76
26915;BME280;14480;52.608;13.416;2023-05-09T19:41:40;143468.88;;;-2.12;63.54
26915;BME280;14480;52.608;13.416;2023-05-09T19:47:05;143445.28;;;-2.21;63.50
26915;BME280;14480;52.608;13.416;2023-05-09T19:52:27;143427.94;;;-2.28;63.05
26915;BME280;14480;52.608;13.416;2023-05-09T19:57:37;143415.47;;;-2.33;62.92
26915;BME280;14480;52.608;13.416;2023-05-09T20:02:41;143379.50;;;-2.48;63.41
26915;BME280;14480;52.608;13.416;2023-05-09T20:07:51;143352.19;;;-2.59;63.86
26915;BME280;14480;52.608;13.416;2023-05-09T20:12:59;143318.66;;;-2.73;64.69
26915;BME280;14480;52.608;13.416;2023-05-09T20:18:06;143296.31;;;-2.82;64.74
26915;BME280;14480;52.608;13.416;2023-05-09T20:23:14;143266.53;;;-2.95;65.08
26915;BME280;14480;52.608;13.416;2023-05-09T20:28:18;143269.00;;;-2.94;65.05
26915;BME280;14480;52.608;13.416;2023-05-09T20:33:25;143249.16;;;-3.02;65.21
26915;BME280;14480;52.608;13.416;2023-05-09T20:38:31;143219.38;;;-3.14;65.93
26915;BME280;14480;52.608;13.416;2023-05-09T20:43:40;143199.53;;;-3.22;66.56
26915;BME280;14480;52.608;13.416;2023-05-09T20:48:45;143174.72;;;-3.32;66.50
26915;BME280;14480;52.608;13.416;2023-05-09T20:53:51;143164.78;;;-3.36;66.89
26915;BME280;14480;52.608;13.416;2023-05-09T20:58:54;143148.69;;;-3.43;67.26
26915;BME280;14480;52.608;13.416;2023-05-09T21:04:01;143133.75;;;-3.49;67.56
26915;BME280;14480;52.608;13.416;2023-05-09T21:09:06;143105.25;;;-3.61;68.11
26915;BME280;14480;52.608;13.416;2023-05-09T21:14:11;143125.09;;;-3.53;67.96
26915;BME280;14480;52.608;13.416;2023-05-09T21:19:14;143135.00;;;-3.48;68.00
26915;BME280;14480;52.608;13.416;2023-05-09T21:24:19;143132.53;;;-3.49;68.65
26915;BME280;14480;52.608;13.416;2023-05-09T21:29:23;143137.47;;;-3.47;68.39
26915;BME280;14480;52.608;13.416;2023-05-09T21:34:26;143131.28;;;-3.50;69.14
